createdAt,value
2023-03-29T00:00:09.066Z,79.43
2023-03-29T00:02:39.182Z,80.28
2023-03-29T00:05:07.487Z,80.28
2023-03-29T00:07:34.841Z,80.37
2023-03-29T00:10:04.817Z,77.85
2023-03-29T00:12:32.289Z,78.17
2023-03-29T00:14:59.754Z,79.13
2023-03-29T00:17:27.212Z,78.31
2023-03-29T00:19:54.404Z,79.48
2023-03-29T00:22:22.080Z,79.71
2023-03-29T00:24:52.062Z,79.57
2023-03-29T00:27:19.386Z,79.76
2023-03-29T00:29:46.662Z,77.30
2023-03-29T00:32:14.553Z,81.16
2023-03-29T00:34:42.822Z,79.61
2023-03-29T00:37:10.248Z,79.07
2023-03-29T00:39:38.049Z,79.55
2023-03-29T00:42:05.504Z,80.54
2023-03-29T00:45:06.183Z,80.06
2023-03-29T00:47:58.008Z,82.74
2023-03-29T00:50:54.177Z,78.47
2023-03-29T00:53:49.167Z,80.64
2023-03-29T00:56:25.145Z,80.93
2023-03-29T00:59:13.898Z,81.32
2023-03-29T01:02:14.152Z,80.08
2023-03-29T01:05:01.467Z,79.83
2023-03-29T01:07:36.446Z,78.78
2023-03-29T01:10:22.544Z,78.17
2023-03-29T01:13:06.844Z,81.00
2023-03-29T01:15:34.809Z,82.77
2023-03-29T01:18:02.180Z,82.74
2023-03-29T01:20:51.151Z,84.26
2023-03-29T01:23:38.183Z,83.06
2023-03-29T01:26:19.039Z,82.39
2023-03-29T01:29:07.812Z,84.83
2023-03-29T01:31:51.227Z,85.68
2023-03-29T01:34:34.354Z,84.42
2023-03-29T01:37:18.084Z,86.26
2023-03-29T01:39:46.762Z,87.11
2023-03-29T01:42:19.790Z,86.05
2023-03-29T01:45:48.112Z,86.81
2023-03-29T01:48:58.897Z,86.56
2023-03-29T01:51:37.512Z,85.66
2023-03-29T01:54:15.431Z,85.05
2023-03-29T01:56:46.836Z,86.93
2023-03-29T01:59:26.316Z,87.15
2023-03-29T02:02:00.080Z,86.61
2023-03-29T02:04:40.471Z,88.35
2023-03-29T02:07:10.653Z,88.95
2023-03-29T02:09:40.452Z,84.40
2023-03-29T02:12:10.856Z,85.22
2023-03-29T02:14:38.973Z,86.53
2023-03-29T02:17:19.946Z,86.71
2023-03-29T02:19:50.665Z,86.62
2023-03-29T02:22:29.107Z,85.33
2023-03-29T02:24:59.277Z,84.78
2023-03-29T02:27:30.163Z,84.17
2023-03-29T02:29:58.422Z,82.88
2023-03-29T02:32:41.901Z,84.27
2023-03-29T02:35:36.351Z,83.90
2023-03-29T02:38:11.527Z,86.24
2023-03-29T02:40:41.947Z,84.23
2023-03-29T02:43:11.712Z,85.97
2023-03-29T02:45:41.642Z,84.69
2023-03-29T02:48:14.236Z,87.11
2023-03-29T02:50:47.163Z,85.19
2023-03-29T02:53:20.685Z,85.35
2023-03-29T02:55:50.177Z,84.64
2023-03-29T02:58:17.437Z,83.18
2023-03-29T03:00:48.746Z,85.90
2023-03-29T03:03:16.224Z,85.34
2023-03-29T03:05:46.094Z,85.94
2023-03-29T03:08:14.122Z,86.49
2023-03-29T03:10:41.460Z,85.32
2023-03-29T03:13:09.070Z,85.26
2023-03-29T03:15:37.375Z,86.92
2023-03-29T03:18:05.033Z,84.79
2023-03-29T03:20:33.496Z,84.53
2023-03-29T03:23:03.396Z,85.50
2023-03-29T03:25:31.727Z,84.33
2023-03-29T03:27:59.117Z,87.26
2023-03-29T03:30:26.322Z,85.45
2023-03-29T03:33:12.204Z,83.63
2023-03-29T03:36:06.524Z,84.58
2023-03-29T03:38:37.913Z,85.55
2023-03-29T03:41:09.816Z,84.57
2023-03-29T03:43:37.169Z,82.85
2023-03-29T03:46:04.854Z,83.83
2023-03-29T03:48:32.490Z,84.68
2023-03-29T03:51:07.161Z,84.01
2023-03-29T03:53:35.921Z,82.77
2023-03-29T03:56:16.381Z,83.41
2023-03-29T03:59:19.272Z,84.25
2023-03-29T04:02:06.912Z,84.18
2023-03-29T04:04:36.712Z,84.72
2023-03-29T04:07:13.154Z,85.20
2023-03-29T04:09:59.503Z,85.36
2023-03-29T04:12:43.154Z,87.06
2023-03-29T04:15:12.194Z,85.04
2023-03-29T04:17:45.013Z,86.82
2023-03-29T04:20:24.357Z,85.80
2023-03-29T04:22:52.760Z,84.58
2023-03-29T04:25:22.353Z,83.10
2023-03-29T04:27:52.377Z,81.81
2023-03-29T04:30:38.009Z,82.12
2023-03-29T04:33:12.794Z,82.94
2023-03-29T04:35:42.637Z,84.96
2023-03-29T04:38:14.108Z,85.99
2023-03-29T04:40:44.257Z,86.53
2023-03-29T04:43:23.989Z,85.17
2023-03-29T04:46:00.943Z,83.73
2023-03-29T04:48:49.823Z,82.88
2023-03-29T04:51:18.523Z,82.04
2023-03-29T04:53:46.398Z,81.69
2023-03-29T04:56:13.707Z,79.97
2023-03-29T04:59:16.175Z,77.98
2023-03-29T05:01:43.580Z,78.11
2023-03-29T05:04:12.857Z,75.04
2023-03-29T05:06:49.076Z,75.20
2023-03-29T05:09:17.136Z,72.19
2023-03-29T05:11:53.725Z,72.79
2023-03-29T05:14:23.747Z,71.83
2023-03-29T05:16:50.942Z,70.18
2023-03-29T05:19:21.794Z,66.95
2023-03-29T05:21:51.030Z,64.87
2023-03-29T05:24:22.495Z,63.41
2023-03-29T05:26:51.902Z,65.31
2023-03-29T05:29:19.786Z,63.19
2023-03-29T05:31:53.445Z,62.45
2023-03-29T05:34:20.884Z,61.21
2023-03-29T05:36:52.710Z,59.18
2023-03-29T05:39:21.172Z,57.39
2023-03-29T05:41:48.842Z,56.26
2023-03-29T05:44:27.628Z,56.93
2023-03-29T05:47:02.120Z,53.95
2023-03-29T05:49:29.370Z,52.26
2023-03-29T05:52:04.691Z,51.38
2023-03-29T05:54:33.456Z,51.51
2023-03-29T05:57:01.689Z,49.66
2023-03-29T05:59:29.780Z,47.01
2023-03-29T06:01:57.321Z,46.03
2023-03-29T06:04:25.448Z,45.85
2023-03-29T06:07:19.494Z,42.56
2023-03-29T06:10:09.698Z,41.86
2023-03-29T06:12:39.099Z,40.08
2023-03-29T06:15:07.331Z,39.22
2023-03-29T06:17:40.126Z,40.56
2023-03-29T06:20:11.425Z,38.79
2023-03-29T06:22:42.808Z,39.75
2023-03-29T06:25:12.384Z,38.76
2023-03-29T06:27:41.082Z,38.50
2023-03-29T06:30:09.568Z,38.17
2023-03-29T06:32:37.887Z,36.60
2023-03-29T06:35:17.303Z,35.33
2023-03-29T06:37:50.866Z,33.88
2023-03-29T06:40:42.152Z,34.79
2023-03-29T06:43:10.889Z,32.32
2023-03-29T06:45:47.972Z,32.34
2023-03-29T06:48:30.734Z,32.13
2023-03-29T06:50:58.032Z,31.59
2023-03-29T06:53:29.079Z,31.62
2023-03-29T06:56:05.323Z,32.56
2023-03-29T06:58:41.014Z,31.87
2023-03-29T07:01:22.936Z,30.26
2023-03-29T07:03:56.692Z,31.02
2023-03-29T07:06:31.492Z,30.73
2023-03-29T07:09:01.805Z,29.40
2023-03-29T07:11:50.418Z,28.57
2023-03-29T07:14:28.692Z,29.29
2023-03-29T07:16:59.366Z,28.06
2023-03-29T07:19:30.493Z,29.03
2023-03-29T07:22:10.026Z,29.56
2023-03-29T07:24:46.935Z,28.03
2023-03-29T07:27:14.762Z,28.61
2023-03-29T07:29:42.200Z,29.26
2023-03-29T07:32:09.675Z,27.68
2023-03-29T07:34:43.318Z,26.91
2023-03-29T07:37:18.503Z,27.23
2023-03-29T07:39:47.367Z,25.49
2023-03-29T07:42:33.558Z,25.12
2023-03-29T07:45:01.569Z,24.83
2023-03-29T07:47:35.284Z,23.49
2023-03-29T07:50:04.516Z,25.44
2023-03-29T07:52:32.862Z,23.71
2023-03-29T07:55:00.932Z,23.33
2023-03-29T07:57:41.687Z,22.90
2023-03-29T08:00:17.075Z,22.67
2023-03-29T08:02:55.192Z,22.44
2023-03-29T08:05:37.846Z,22.70
2023-03-29T08:08:11.046Z,22.55
2023-03-29T08:10:48.993Z,22.89
2023-03-29T08:13:26.686Z,21.65
2023-03-29T08:16:12.382Z,21.63
2023-03-29T08:18:46.226Z,21.44
2023-03-29T08:21:14.978Z,22.03
2023-03-29T08:23:47.074Z,21.14
2023-03-29T08:26:24.826Z,20.30
2023-03-29T08:28:52.394Z,20.82
2023-03-29T08:31:21.464Z,21.60
2023-03-29T08:33:48.924Z,19.94
2023-03-29T08:36:36.622Z,20.05
2023-03-29T08:39:11.176Z,20.64
2023-03-29T08:41:58.840Z,23.14
2023-03-29T08:45:14.848Z,21.21
2023-03-29T08:48:01.730Z,20.10
2023-03-29T08:50:48.091Z,20.87
2023-03-29T08:53:31.964Z,19.54
2023-03-29T08:56:20.803Z,20.08
2023-03-29T08:59:33.239Z,20.54
2023-03-29T09:02:10.925Z,21.61
2023-03-29T09:04:42.542Z,21.01
2023-03-29T09:07:28.568Z,21.47
2023-03-29T09:09:57.153Z,21.03
2023-03-29T09:12:50.811Z,22.18
2023-03-29T09:15:29.063Z,23.93
2023-03-29T09:18:23.070Z,24.13
2023-03-29T09:21:06.962Z,23.89
2023-03-29T09:24:12.294Z,23.99
2023-03-29T09:27:00.673Z,23.23
2023-03-29T09:29:53.139Z,24.57
2023-03-29T09:32:33.208Z,22.24
2023-03-29T09:35:22.275Z,20.12
2023-03-29T09:37:54.312Z,21.73
2023-03-29T09:40:38.017Z,20.59
2023-03-29T09:45:43.824Z,18.82
2023-03-29T09:48:18.465Z,19.05
2023-03-29T09:50:52.428Z,19.08
2023-03-29T09:53:21.915Z,18.37
2023-03-29T09:56:00.167Z,20.32
2023-03-29T09:58:39.076Z,20.60
2023-03-29T10:01:10.990Z,21.17
2023-03-29T10:03:41.210Z,21.68
2023-03-29T10:06:14.695Z,22.81
2023-03-29T10:08:57.728Z,23.32
2023-03-29T10:11:37.068Z,24.61
2023-03-29T10:14:16.522Z,25.39
2023-03-29T10:16:46.373Z,22.67
2023-03-29T10:19:30.386Z,22.43
2023-03-29T10:22:18.214Z,22.52
2023-03-29T10:24:54.329Z,22.41
2023-03-29T10:27:29.166Z,21.85
2023-03-29T10:30:08.115Z,22.54
2023-03-29T10:32:37.675Z,23.59
2023-03-29T10:35:38.273Z,23.94
2023-03-29T10:38:12.153Z,23.83
2023-03-29T10:40:51.844Z,23.04
2023-03-29T10:43:38.594Z,21.14
2023-03-29T10:46:13.256Z,21.50
2023-03-29T10:48:46.609Z,21.51
2023-03-29T10:51:17.117Z,23.83
2023-03-29T10:53:44.401Z,22.74
2023-03-29T10:56:20.164Z,21.76
2023-03-29T10:59:23.056Z,22.30
2023-03-29T11:02:14.746Z,22.65
2023-03-29T11:05:32.531Z,23.94
2023-03-29T11:08:11.658Z,24.55
2023-03-29T11:11:06.697Z,22.40
2023-03-29T11:13:46.571Z,22.90
2023-03-29T11:16:39.611Z,21.25
2023-03-29T11:19:20.706Z,24.74
2023-03-29T11:22:25.410Z,25.30
2023-03-29T11:25:24.706Z,27.82
2023-03-29T11:27:57.782Z,25.93
2023-03-29T11:31:13.486Z,24.83
2023-03-29T11:34:22.270Z,24.26
2023-03-29T11:37:12.408Z,24.73
2023-03-29T11:40:12.197Z,25.37
2023-03-29T11:42:47.319Z,25.41
2023-03-29T11:45:47.028Z,25.83
2023-03-29T11:48:32.583Z,27.16
2023-03-29T11:51:13.250Z,25.97
2023-03-29T11:54:05.381Z,26.41
2023-03-29T11:56:47.482Z,27.43
2023-03-29T11:59:25.474Z,27.99
2023-03-29T12:02:02.176Z,29.00
2023-03-29T12:04:42.789Z,29.45
2023-03-29T12:07:39.140Z,31.83
2023-03-29T12:10:17.910Z,28.74
2023-03-29T12:12:55.403Z,30.50
2023-03-29T12:15:29.441Z,32.36
2023-03-29T12:18:42.178Z,31.17
2023-03-29T12:21:20.149Z,30.48
2023-03-29T12:23:49.786Z,29.62
2023-03-29T12:26:50.766Z,31.20
2023-03-29T12:29:39.438Z,32.22
2023-03-29T12:32:42.452Z,30.05
2023-03-29T12:35:59.217Z,29.97
2023-03-29T12:38:31.081Z,32.69
2023-03-29T12:41:22.013Z,31.32
2023-03-29T12:44:10.234Z,34.01
2023-03-29T12:47:02.334Z,31.34
2023-03-29T12:49:38.486Z,28.95
2023-03-29T12:52:35.233Z,31.00
2023-03-29T12:55:20.912Z,30.67
2023-03-29T12:58:10.845Z,31.58
2023-03-29T13:00:42.263Z,29.70
2023-03-29T13:03:30.046Z,30.86
2023-03-29T13:06:08.666Z,32.20
2023-03-29T13:08:44.896Z,32.53
2023-03-29T13:11:27.414Z,31.00
2023-03-29T13:13:55.491Z,31.40
2023-03-29T13:16:40.637Z,33.17
2023-03-29T13:19:23.509Z,33.12
2023-03-29T13:22:12.712Z,31.85
2023-03-29T13:25:20.538Z,35.81
2023-03-29T13:28:25.497Z,32.91
2023-03-29T13:31:39.941Z,36.15
2023-03-29T13:34:15.920Z,33.69
2023-03-29T13:37:10.760Z,35.09
2023-03-29T13:39:51.509Z,33.95
2023-03-29T13:42:37.186Z,33.47
2023-03-29T13:45:25.296Z,34.62
2023-03-29T13:48:25.744Z,34.60
2023-03-29T13:51:33.983Z,34.98
2023-03-29T13:54:15.135Z,35.14
2023-03-29T13:57:10.018Z,36.72
2023-03-29T14:00:23.597Z,36.43
2023-03-29T14:03:05.472Z,35.84
2023-03-29T14:05:40.015Z,36.46
2023-03-29T14:08:33.314Z,34.32
2023-03-29T14:11:05.257Z,33.30
2023-03-29T14:13:32.675Z,33.93
2023-03-29T14:16:10.390Z,36.75
2023-03-29T14:18:41.876Z,34.56
2023-03-29T14:21:12.752Z,36.23
2023-03-29T14:23:46.702Z,35.93
2023-03-29T14:26:24.385Z,35.60
2023-03-29T14:28:56.635Z,34.96
2023-03-29T14:31:37.248Z,33.35
2023-03-29T14:34:06.754Z,36.18
2023-03-29T14:36:34.692Z,35.01
2023-03-29T14:39:08.366Z,35.24
2023-03-29T14:41:38.416Z,35.58
2023-03-29T14:44:07.821Z,35.01
2023-03-29T14:46:36.661Z,36.81
2023-03-29T14:49:06.170Z,35.99
2023-03-29T14:51:36.109Z,34.23
2023-03-29T14:54:05.676Z,33.77
2023-03-29T14:56:34.120Z,34.08
2023-03-29T14:59:04.979Z,34.69
2023-03-29T15:01:32.451Z,34.34
2023-03-29T15:04:08.088Z,36.99
2023-03-29T15:06:50.886Z,34.95
2023-03-29T15:09:26.685Z,35.27
2023-03-29T15:11:56.906Z,36.53
2023-03-29T15:14:30.100Z,35.86
2023-03-29T15:17:04.680Z,37.06
2023-03-29T15:19:33.019Z,36.09
2023-03-29T15:22:10.232Z,35.90
2023-03-29T15:24:47.641Z,36.34
2023-03-29T15:27:19.719Z,36.65
2023-03-29T15:29:48.472Z,37.25
2023-03-29T15:32:34.139Z,37.72
2023-03-29T15:35:10.798Z,37.13
2023-03-29T15:37:38.057Z,38.24
2023-03-29T15:40:09.844Z,37.28
2023-03-29T15:42:37.470Z,38.31
2023-03-29T15:45:06.480Z,37.25
2023-03-29T15:47:34.106Z,37.65
2023-03-29T15:50:01.430Z,37.08
2023-03-29T15:52:28.719Z,40.16
2023-03-29T15:54:56.214Z,39.09
2023-03-29T15:57:23.612Z,40.49
2023-03-29T15:59:50.936Z,40.80
2023-03-29T16:02:22.067Z,40.99
2023-03-29T16:04:50.984Z,41.79
2023-03-29T16:07:20.865Z,42.45
2023-03-29T16:09:48.136Z,42.00
2023-03-29T16:12:16.436Z,42.94
2023-03-29T16:14:43.784Z,42.45
2023-03-29T16:17:11.538Z,42.99
2023-03-29T16:19:38.864Z,43.82
2023-03-29T16:22:07.429Z,44.86
2023-03-29T16:24:36.355Z,44.78
2023-03-29T16:27:04.295Z,44.45
2023-03-29T16:29:31.996Z,43.44
2023-03-29T16:31:59.402Z,44.77
2023-03-29T16:34:26.848Z,44.83
2023-03-29T16:36:54.179Z,45.41
2023-03-29T16:39:21.579Z,44.83
2023-03-29T16:41:50.321Z,43.46
2023-03-29T16:44:23.853Z,44.71
2023-03-29T16:46:57.479Z,45.02
2023-03-29T16:49:24.993Z,44.26
2023-03-29T16:51:52.187Z,44.14
2023-03-29T16:54:19.398Z,44.75
2023-03-29T16:56:47.243Z,42.83
2023-03-29T16:59:15.417Z,43.48
2023-03-29T17:01:42.996Z,45.17
2023-03-29T17:04:10.493Z,44.41
2023-03-29T17:06:38.069Z,43.33
2023-03-29T17:09:06.228Z,45.46
2023-03-29T17:11:34.649Z,43.60
2023-03-29T17:14:02.061Z,43.14
2023-03-29T17:16:29.447Z,46.18
2023-03-29T17:19:00.498Z,45.09
2023-03-29T17:21:29.342Z,45.77
2023-03-29T17:23:56.680Z,46.83
2023-03-29T17:26:24.165Z,45.56
2023-03-29T17:28:51.601Z,49.79
2023-03-29T17:31:19.488Z,46.04
2023-03-29T17:33:47.685Z,47.16
2023-03-29T17:36:15.210Z,47.28
2023-03-29T17:38:43.164Z,48.84
2023-03-29T17:41:11.144Z,48.95
2023-03-29T17:43:38.424Z,50.13
2023-03-29T17:46:06.225Z,49.57
2023-03-29T17:48:34.010Z,47.47
2023-03-29T17:51:01.281Z,51.97
2023-03-29T17:53:28.586Z,52.94
2023-03-29T17:55:55.800Z,56.16
2023-03-29T17:58:23.044Z,53.98
2023-03-29T18:00:50.524Z,56.26
2023-03-29T18:03:17.892Z,56.81
2023-03-29T18:05:45.598Z,54.86
2023-03-29T18:08:13.738Z,51.65
2023-03-29T18:10:41.229Z,52.87
2023-03-29T18:13:11.399Z,56.32
2023-03-29T18:15:38.695Z,53.66
2023-03-29T18:18:06.367Z,56.36
2023-03-29T18:20:33.657Z,55.80
2023-03-29T18:23:00.936Z,55.57
2023-03-29T18:25:29.556Z,57.69
2023-03-29T18:27:56.816Z,60.46
2023-03-29T18:30:24.065Z,58.91
2023-03-29T18:32:51.340Z,57.66
2023-03-29T18:35:18.728Z,57.86
2023-03-29T18:37:46.583Z,58.66
2023-03-29T18:40:15.727Z,57.94
2023-03-29T18:42:43.092Z,54.85
2023-03-29T18:45:11.270Z,54.69
2023-03-29T18:47:38.596Z,53.06
2023-03-29T18:50:06.760Z,53.83
2023-03-29T18:52:34.046Z,53.32
2023-03-29T18:55:01.463Z,53.18
2023-03-29T18:57:28.826Z,53.03
2023-03-29T18:59:56.624Z,53.10
2023-03-29T19:02:24.021Z,53.63
2023-03-29T19:04:51.312Z,54.98
2023-03-29T19:07:19.027Z,53.12
2023-03-29T19:09:46.197Z,52.45
2023-03-29T19:12:13.531Z,51.94
2023-03-29T19:14:40.947Z,53.16
2023-03-29T19:17:08.170Z,50.39
2023-03-29T19:19:35.458Z,50.79
2023-03-29T19:22:03.233Z,53.32
2023-03-29T19:24:30.654Z,52.61
2023-03-29T19:26:58.349Z,53.05
2023-03-29T19:29:26.280Z,52.04
2023-03-29T19:31:54.725Z,54.19
2023-03-29T19:34:23.903Z,51.64
2023-03-29T19:36:53.526Z,54.83
2023-03-29T19:39:21.635Z,52.10
2023-03-29T19:41:48.947Z,53.74
2023-03-29T19:44:16.218Z,57.13
2023-03-29T19:46:43.529Z,58.42
2023-03-29T19:49:13.636Z,55.84
2023-03-29T19:51:42.217Z,58.37
2023-03-29T19:54:12.815Z,59.03
2023-03-29T19:56:40.898Z,60.36
2023-03-29T19:59:11.074Z,57.92
2023-03-29T20:01:40.680Z,57.44
2023-03-29T20:04:08.239Z,56.38
2023-03-29T20:06:35.742Z,59.28
2023-03-29T20:09:05.235Z,57.36
2023-03-29T20:11:32.543Z,59.07
2023-03-29T20:14:00.031Z,62.60
2023-03-29T20:16:27.595Z,59.25
2023-03-29T20:18:56.303Z,58.38
2023-03-29T20:21:23.543Z,59.68
2023-03-29T20:23:50.886Z,59.84
2023-03-29T20:26:18.371Z,61.60
2023-03-29T20:28:45.858Z,61.97
2023-03-29T20:31:13.310Z,63.11
2023-03-29T20:33:41.537Z,63.54
2023-03-29T20:36:09.135Z,63.99
2023-03-29T20:38:36.882Z,62.27
2023-03-29T20:41:05.740Z,61.14
2023-03-29T20:43:37.695Z,62.48
2023-03-29T20:46:14.563Z,63.71
2023-03-29T20:48:54.599Z,64.09
2023-03-29T20:51:30.338Z,64.43
2023-03-29T20:54:06.116Z,67.21
2023-03-29T20:56:38.965Z,64.26
2023-03-29T20:59:10.861Z,62.81
2023-03-29T21:01:41.066Z,60.02
2023-03-29T21:04:09.301Z,58.68
2023-03-29T21:06:39.521Z,56.89
2023-03-29T21:09:07.387Z,63.09
2023-03-29T21:11:34.582Z,63.08
2023-03-29T21:14:02.687Z,67.29
2023-03-29T21:16:30.039Z,63.17
2023-03-29T21:18:57.329Z,63.81
2023-03-29T21:21:24.712Z,65.71
2023-03-29T21:23:51.973Z,64.22
2023-03-29T21:26:19.198Z,64.69
2023-03-29T21:28:48.666Z,67.01
2023-03-29T21:31:16.085Z,65.60
2023-03-29T21:33:43.355Z,65.68
2023-03-29T21:36:10.853Z,67.05
2023-03-29T21:38:38.085Z,66.55
2023-03-29T21:41:06.891Z,65.93
2023-03-29T21:43:34.112Z,62.37
2023-03-29T21:46:01.520Z,62.97
2023-03-29T21:48:29.102Z,62.59
2023-03-29T21:50:56.352Z,63.59
2023-03-29T21:53:24.646Z,62.98
2023-03-29T21:55:52.733Z,67.26
2023-03-29T21:58:20.565Z,62.17
2023-03-29T22:00:48.258Z,64.40
2023-03-29T22:03:16.743Z,66.55
2023-03-29T22:05:54.597Z,63.64
2023-03-29T22:08:26.365Z,67.73
2023-03-29T22:10:56.709Z,67.64
2023-03-29T22:13:27.057Z,65.38
2023-03-29T22:16:03.905Z,60.46
2023-03-29T22:18:43.053Z,65.21
2023-03-29T22:21:14.568Z,65.78
2023-03-29T22:23:43.778Z,60.33
2023-03-29T22:26:13.560Z,64.87
2023-03-29T22:28:41.800Z,65.65
2023-03-29T22:31:15.579Z,67.48
2023-03-29T22:33:43.347Z,65.76
2023-03-29T22:36:31.885Z,63.92
2023-03-29T22:38:59.392Z,63.34
2023-03-29T22:41:28.336Z,65.22
2023-03-29T22:43:58.237Z,61.83
2023-03-29T22:46:26.445Z,63.89
2023-03-29T22:48:54.006Z,64.28
2023-03-29T22:51:21.705Z,61.63
2023-03-29T22:53:49.133Z,66.25
2023-03-29T22:56:17.316Z,66.12
2023-03-29T22:58:44.694Z,68.11
2023-03-29T23:01:12.752Z,65.94
2023-03-29T23:03:39.982Z,67.26
2023-03-29T23:06:07.764Z,64.20
2023-03-29T23:08:35.367Z,66.19
2023-03-29T23:11:04.116Z,67.41
2023-03-29T23:13:33.557Z,67.40
2023-03-29T23:16:03.661Z,67.76
2023-03-29T23:18:34.812Z,66.14
2023-03-29T23:21:05.599Z,64.54
2023-03-29T23:23:33.876Z,63.80
2023-03-29T23:26:02.533Z,65.18
2023-03-29T23:28:34.685Z,66.37
2023-03-29T23:31:11.626Z,69.17
2023-03-29T23:33:43.008Z,66.85
2023-03-29T23:36:16.488Z,68.14
2023-03-29T23:38:45.873Z,67.46
2023-03-29T23:41:17.815Z,66.21
2023-03-29T23:43:47.100Z,66.65
2023-03-29T23:46:17.623Z,64.25
2023-03-29T23:48:47.291Z,67.60
2023-03-29T23:51:15.388Z,67.57
2023-03-29T23:53:42.633Z,69.87
2023-03-29T23:56:10.127Z,68.38
2023-03-29T23:58:38.314Z,69.18
